createdAt,value
2022-09-05T00:02:01.411Z,101820.63
2022-09-05T00:04:53.448Z,101821.63
2022-09-05T00:07:59.783Z,101817.16
2022-09-05T00:10:25.667Z,101815.44
2022-09-05T00:13:07.172Z,101821.59
2022-09-05T00:16:01.644Z,101815.25
2022-09-05T00:24:18.541Z,101818.09
2022-09-05T00:24:30.625Z,101811.94
2022-09-05T00:25:14.880Z,101820.72
2022-09-05T00:27:58.905Z,101815.56
2022-09-05T00:31:07.532Z,101816.44
2022-09-05T00:34:10.184Z,101819.91
2022-09-05T00:36:39.813Z,101811.09
2022-09-05T00:39:12.767Z,101819.03
2022-09-05T00:41:39.878Z,101814.59
2022-09-05T00:44:07.060Z,101811.94
2022-09-05T00:46:37.513Z,101825.13
2022-09-05T00:49:31.993Z,101822.59
2022-09-05T00:52:01.599Z,101822.69
2022-09-05T00:55:02.557Z,101822.56
2022-09-05T00:57:41.239Z,101827.03
2022-09-05T01:00:17.926Z,101824.38
2022-09-05T01:03:10.039Z,101821.78
2022-09-05T01:06:14.925Z,101831.56
2022-09-05T01:09:08.210Z,101834.22
2022-09-05T01:12:09.136Z,101841.28
2022-09-05T01:14:35.640Z,101839.50
2022-09-05T01:17:21.002Z,101839.59
2022-09-05T01:20:19.112Z,101843.16
2022-09-05T01:23:18.215Z,101839.59
2022-09-05T01:26:21.883Z,101843.88
2022-09-05T01:29:17.907Z,101843.16
2022-09-05T01:32:02.507Z,101842.19
2022-09-05T01:34:56.464Z,101848.41
2022-09-05T01:37:33.999Z,101846.72
2022-09-05T01:40:19.899Z,101848.47
2022-09-05T01:43:06.256Z,101850.28
2022-09-05T01:46:01.189Z,101846.78
2022-09-05T01:48:46.286Z,101844.13
2022-09-05T01:51:35.542Z,101844.09
2022-09-05T01:54:24.622Z,101848.53
2022-09-05T01:57:02.299Z,101842.34
2022-09-05T01:59:39.714Z,101847.66
2022-09-05T02:02:23.299Z,101846.75
2022-09-05T02:05:11.902Z,101847.66
2022-09-05T02:08:04.603Z,101849.47
2022-09-05T02:10:39.805Z,101850.38
2022-09-05T02:13:24.299Z,101847.72
2022-09-05T02:15:59.782Z,101852.16
2022-09-05T02:18:52.347Z,101856.59
2022-09-05T02:21:36.697Z,101856.63
2022-09-05T02:24:45.618Z,101852.22
2022-09-05T02:27:45.865Z,101854.88
2022-09-05T02:30:17.288Z,101861.03
2022-09-05T02:32:51.550Z,101864.59
2022-09-05T02:35:24.098Z,101857.56
2022-09-05T02:38:31.736Z,101857.50
2022-09-05T02:45:07.354Z,101854.88
2022-09-05T02:45:07.590Z,101862.00
2022-09-05T02:47:00.454Z,101855.84
2022-09-05T02:51:04.156Z,101860.25
2022-09-05T02:57:29.017Z,101866.41
2022-09-05T02:57:40.980Z,101865.53
2022-09-05T02:58:21.835Z,101867.28
2022-09-05T03:01:04.301Z,101865.53
2022-09-05T03:03:37.175Z,101862.88
2022-09-05T03:06:35.146Z,101859.38
2022-09-05T03:09:17.356Z,101864.66
2022-09-05T03:12:28.375Z,101867.31
2022-09-05T03:15:18.450Z,101856.78
2022-09-05T03:18:20.025Z,101862.03
2022-09-05T03:21:15.949Z,101862.03
2022-09-05T03:24:01.419Z,101860.28
2022-09-05T03:26:44.003Z,101866.44
2022-09-05T03:29:25.822Z,101862.94
2022-09-05T03:32:11.066Z,101863.81
2022-09-05T03:34:53.667Z,101862.91
2022-09-05T03:37:59.299Z,101860.28
2022-09-05T03:40:46.842Z,101857.63
2022-09-05T03:43:34.848Z,101867.31
2022-09-05T03:46:08.218Z,101857.63
2022-09-05T03:48:44.074Z,101861.16
2022-09-05T03:57:04.745Z,101848.84
2022-09-05T03:57:13.960Z,101848.84
2022-09-05T03:57:41.746Z,101845.31
2022-09-05T04:00:21.653Z,101845.31
2022-09-05T04:08:15.054Z,101845.28
2022-09-05T04:08:27.564Z,101842.66
2022-09-05T04:09:04.101Z,101849.69
2022-09-05T04:11:35.742Z,101854.09
2022-09-05T04:14:07.028Z,101852.31
2022-09-05T04:16:45.023Z,101842.66
2022-09-05T04:19:18.192Z,101850.59
2022-09-05T04:21:55.855Z,101848.84
2022-09-05T04:24:36.822Z,101846.19
2022-09-05T04:27:45.152Z,101854.09
2022-09-05T04:30:38.396Z,101855.84
2022-09-05T04:33:36.279Z,101855.84
2022-09-05T04:36:28.236Z,101867.28
2022-09-05T04:39:09.424Z,101864.66
2022-09-05T04:41:42.246Z,101865.50
2022-09-05T04:44:14.847Z,101869.06
2022-09-05T04:46:54.484Z,101866.38
2022-09-05T04:49:30.427Z,101871.66
2022-09-05T04:52:31.461Z,101877.84
2022-09-05T04:55:14.557Z,101879.59
2022-09-05T04:58:01.366Z,101884.84
2022-09-05T05:06:00.673Z,101877.81
2022-09-05T05:06:17.339Z,101877.81
2022-09-05T05:06:45.582Z,101881.28
2022-09-05T05:10:03.277Z,101876.88
2022-09-05T05:17:58.393Z,101884.81
2022-09-05T05:18:14.228Z,101881.25
2022-09-05T05:18:57.582Z,101881.25
2022-09-05T05:21:30.138Z,101883.88
2022-09-05T05:24:07.902Z,101875.09
2022-09-05T05:27:13.328Z,101890.03
2022-09-05T05:29:46.007Z,101887.38
2022-09-05T05:32:44.866Z,101894.38
2022-09-05T05:35:15.016Z,101897.03
2022-09-05T05:37:45.676Z,101907.59
2022-09-05T05:40:15.220Z,101903.94
2022-09-05T05:42:43.213Z,101899.63
2022-09-05T05:45:27.898Z,101900.44
2022-09-05T05:47:59.949Z,101905.72
2022-09-05T05:51:06.441Z,101905.69
2022-09-05T05:54:00.946Z,101908.28
2022-09-05T05:56:46.324Z,101911.88
2022-09-05T05:59:28.027Z,101910.09
2022-09-05T06:02:19.652Z,101911.88
2022-09-05T06:04:55.440Z,101909.16
2022-09-05T06:11:20.534Z,101906.47
2022-09-05T06:14:57.752Z,101909.97
2022-09-05T06:15:01.052Z,101910.63
2022-09-05T06:17:46.514Z,101908.78
2022-09-05T06:22:03.987Z,101911.28
2022-09-05T06:23:38.672Z,101908.94
2022-09-05T06:26:37.757Z,101919.94
2022-09-05T06:29:17.566Z,101913.81
2022-09-05T06:32:10.481Z,101920.66
2022-09-05T06:34:59.995Z,101919.09
2022-09-05T06:37:54.494Z,101922.66
2022-09-05T06:40:37.245Z,101916.34
2022-09-05T06:43:26.124Z,101915.41
2022-09-05T06:46:54.321Z,101915.41
2022-09-05T06:49:30.303Z,101907.41
2022-09-05T06:52:29.202Z,101909.06
2022-09-05T06:55:31.205Z,101911.56
2022-09-05T06:58:28.038Z,101905.44
2022-09-05T07:00:57.103Z,101909.59
2022-09-05T07:03:46.716Z,101903.59
2022-09-05T07:07:01.495Z,101904.19
2022-09-05T07:09:50.874Z,101908.19
2022-09-05T07:12:30.235Z,101913.63
2022-09-05T07:15:32.502Z,101916.31
2022-09-05T07:18:26.683Z,101910.06
2022-09-05T07:21:15.792Z,101915.00
2022-09-05T07:24:08.959Z,101917.44
2022-09-05T07:26:52.538Z,101918.91
2022-09-05T07:29:32.796Z,101925.19
2022-09-05T07:32:01.373Z,101926.03
2022-09-05T07:34:30.160Z,101930.78
2022-09-05T07:37:15.561Z,101932.63
2022-09-05T07:39:51.774Z,101934.81
2022-09-05T07:42:26.511Z,101938.31
2022-09-05T07:44:57.111Z,101939.72
2022-09-05T07:47:32.676Z,101933.22
2022-09-05T07:50:47.204Z,101944.56
2022-09-05T07:56:49.702Z,101943.41
2022-09-05T07:57:05.170Z,101935.19
2022-09-05T07:58:41.279Z,101925.16
2022-09-05T08:01:13.015Z,101942.22
2022-09-05T08:03:41.491Z,101935.47
2022-09-05T08:06:14.381Z,101931.56
2022-09-05T08:09:21.380Z,101932.09
2022-09-05T08:11:59.959Z,101934.38
2022-09-05T08:14:44.934Z,101927.75
2022-09-05T08:17:21.063Z,101936.41
2022-09-05T08:20:15.868Z,101940.47
2022-09-05T08:22:52.270Z,101938.91
2022-09-05T08:25:27.447Z,101938.03
2022-09-05T08:28:19.588Z,101939.91
2022-09-05T08:30:54.048Z,101936.72
2022-09-05T08:33:24.439Z,101936.47
2022-09-05T08:35:57.770Z,101926.88
2022-09-05T08:38:38.737Z,101932.53
2022-09-05T08:41:26.030Z,101924.19
2022-09-05T08:46:41.199Z,101921.47
2022-09-05T08:47:27.707Z,101919.19
2022-09-05T08:50:14.123Z,101914.75
2022-09-05T08:53:02.230Z,101902.78
2022-09-05T08:55:39.023Z,101896.31
2022-09-05T08:58:24.187Z,101904.97
2022-09-05T09:01:07.457Z,101893.44
2022-09-05T09:05:01.018Z,101892.72
2022-09-05T09:07:51.535Z,101885.81
2022-09-05T09:10:29.362Z,101887.28
2022-09-05T09:13:11.089Z,101894.84
2022-09-05T09:15:56.633Z,101894.84
2022-09-05T09:18:35.842Z,101894.41
2022-09-05T09:21:23.271Z,101893.09
2022-09-05T09:24:32.789Z,101893.09
2022-09-05T09:27:41.707Z,101894.78
2022-09-05T09:30:12.262Z,101902.72
2022-09-05T09:32:49.366Z,101899.78
2022-09-05T09:35:54.831Z,101899.31
2022-09-05T09:38:51.533Z,101890.66
2022-09-05T09:41:34.062Z,101899.38
2022-09-05T09:44:21.154Z,101892.88
2022-09-05T09:46:50.754Z,101890.91
2022-09-05T09:49:36.760Z,101889.66
2022-09-05T09:52:20.606Z,101888.69
2022-09-05T09:55:30.384Z,101895.09
2022-09-05T09:58:15.242Z,101890.75
2022-09-05T10:01:35.437Z,101889.72
2022-09-05T10:10:34.326Z,101884.56
2022-09-05T10:11:09.345Z,101882.09
2022-09-05T10:11:22.648Z,101879.56
2022-09-05T10:14:03.953Z,101879.78
2022-09-05T10:16:42.093Z,101875.53
2022-09-05T10:22:41.110Z,101877.97
2022-09-05T10:25:32.399Z,101864.38
2022-09-05T10:28:37.821Z,101870.91
2022-09-05T10:31:55.568Z,101864.00
2022-09-05T10:35:12.935Z,101866.59
2022-09-05T10:37:02.717Z,101860.72
2022-09-05T10:39:35.429Z,101861.50
2022-09-05T10:42:11.114Z,101866.72
2022-09-05T10:44:46.523Z,101858.19
2022-09-05T10:47:26.300Z,101845.81
2022-09-05T10:50:20.774Z,101846.94
2022-09-05T10:52:50.442Z,101845.03
2022-09-05T10:55:26.167Z,101844.44
2022-09-05T10:58:30.430Z,101836.38
2022-09-05T11:02:29.997Z,101839.75
2022-09-05T11:04:51.854Z,101827.22
2022-09-05T11:07:43.935Z,101831.84
2022-09-05T11:10:20.366Z,101823.31
2022-09-05T11:13:05.879Z,101819.97
2022-09-05T11:15:52.899Z,101817.69
2022-09-05T11:18:56.912Z,101806.66
2022-09-05T11:21:42.243Z,101814.50
2022-09-05T11:24:31.528Z,101820.19
2022-09-05T11:27:24.602Z,101815.56
2022-09-05T11:29:55.976Z,101801.53
2022-09-05T11:36:13.348Z,101804.97
2022-09-05T11:40:05.248Z,101790.19
2022-09-05T11:40:07.554Z,101804.41
2022-09-05T11:42:00.466Z,101801.34
2022-09-05T11:44:34.765Z,101793.84
2022-09-05T11:47:48.802Z,101799.03
2022-09-05T11:50:51.815Z,101793.09
2022-09-05T11:53:37.144Z,101784.94
2022-09-05T11:56:46.108Z,101783.81
2022-09-05T11:59:46.779Z,101787.88
2022-09-05T12:02:32.730Z,101791.56
2022-09-05T12:05:48.335Z,101778.44
2022-09-05T12:08:38.160Z,101786.00
2022-09-05T12:11:22.928Z,101788.44
2022-09-05T12:14:21.376Z,101780.00
2022-09-05T12:16:55.202Z,101780.09
2022-09-05T12:19:47.313Z,101774.41
2022-09-05T12:22:23.573Z,101779.91
2022-09-05T12:25:26.431Z,101778.44
2022-09-05T12:29:27.576Z,101771.53
2022-09-05T12:32:19.647Z,101767.84
2022-09-05T12:36:06.370Z,101765.91
2022-09-05T12:40:43.288Z,101771.72
2022-09-05T12:40:57.496Z,101757.41
2022-09-05T12:43:49.683Z,101756.00
2022-09-05T12:45:47.657Z,101754.34
2022-09-05T12:48:39.253Z,101742.78
2022-09-05T12:51:18.038Z,101751.28
2022-09-05T12:54:01.812Z,101735.41
2022-09-05T12:58:37.299Z,101745.94
2022-09-05T13:03:02.089Z,101742.47
2022-09-05T13:03:14.741Z,101744.22
2022-09-05T13:05:17.143Z,101747.50
2022-09-05T13:07:48.913Z,101736.84
2022-09-05T13:14:14.503Z,101735.22
2022-09-05T13:14:52.378Z,101737.38
2022-09-05T13:16:03.474Z,101734.53
2022-09-05T13:18:39.191Z,101724.31
2022-09-05T13:21:27.188Z,101727.72
2022-09-05T13:24:05.289Z,101725.31
2022-09-05T13:26:41.751Z,101729.09
2022-09-05T13:29:21.665Z,101717.94
2022-09-05T13:38:11.574Z,101724.53
2022-09-05T13:38:21.300Z,101717.28
2022-09-05T13:38:47.506Z,101706.00
2022-09-05T13:40:49.404Z,101707.16
2022-09-05T13:43:21.867Z,101725.59
2022-09-05T13:46:18.907Z,101707.81
2022-09-05T13:51:51.217Z,101710.47
2022-09-05T13:54:30.560Z,101702.56
2022-09-05T13:57:32.749Z,101707.34
2022-09-05T14:00:07.026Z,101694.72
2022-09-05T14:03:37.673Z,101694.22
2022-09-05T14:06:47.081Z,101699.66
2022-09-05T14:09:41.889Z,101692.91
2022-09-05T14:12:36.975Z,101697.72
2022-09-05T14:15:39.227Z,101696.53
2022-09-05T14:18:53.055Z,101702.13
2022-09-05T14:21:20.749Z,101697.69
2022-09-05T14:24:10.982Z,101690.81
2022-09-05T14:26:46.024Z,101689.78
2022-09-05T14:29:18.771Z,101692.03
2022-09-05T14:37:35.120Z,101688.56
2022-09-05T14:37:49.991Z,101698.25
2022-09-05T14:38:35.721Z,101681.53
2022-09-05T14:41:42.859Z,101676.06
2022-09-05T14:44:51.502Z,101685.28
2022-09-05T14:47:47.413Z,101688.91
2022-09-05T14:50:30.085Z,101683.38
2022-09-05T14:57:10.205Z,101673.44
2022-09-05T15:02:51.985Z,101667.31
2022-09-05T15:02:52.182Z,101673.66
2022-09-05T15:04:56.402Z,101668.34
2022-09-05T15:07:34.392Z,101680.94
2022-09-05T15:12:17.890Z,101669.97
2022-09-05T15:13:05.610Z,101672.25
2022-09-05T15:15:39.301Z,101669.66
2022-09-05T15:18:32.115Z,101665.44
2022-09-05T15:21:33.932Z,101666.88
2022-09-05T15:24:14.424Z,101665.75
2022-09-05T15:26:57.257Z,101658.00
2022-09-05T15:29:29.473Z,101646.84
2022-09-05T15:32:26.013Z,101645.19
2022-09-05T15:34:55.472Z,101648.28
2022-09-05T15:37:29.350Z,101654.84
2022-09-05T15:40:22.645Z,101654.34
2022-09-05T15:43:05.186Z,101647.84
2022-09-05T15:45:39.706Z,101647.81
2022-09-05T15:48:15.401Z,101642.94
2022-09-05T15:50:48.611Z,101653.59
2022-09-05T15:53:22.987Z,101649.06
2022-09-05T15:56:00.268Z,101653.00
2022-09-05T15:58:28.539Z,101637.97
2022-09-05T16:01:45.077Z,101640.22
2022-09-05T16:05:57.417Z,101645.78
2022-09-05T16:10:39.375Z,101635.44
2022-09-05T16:10:49.483Z,101637.72
2022-09-05T16:18:34.245Z,101642.75
2022-09-05T16:23:14.288Z,101647.78
2022-09-05T16:23:26.992Z,101636.47
2022-09-05T16:24:04.948Z,101640.38
2022-09-05T16:26:38.535Z,101648.50
2022-09-05T16:29:25.898Z,101644.06
2022-09-05T16:31:59.377Z,101646.59
2022-09-05T16:35:10.985Z,101646.03
2022-09-05T16:37:45.006Z,101640.81
2022-09-05T16:40:17.741Z,101644.59
2022-09-05T16:43:18.190Z,101640.38
2022-09-05T16:45:52.566Z,101641.94
2022-09-05T16:48:40.995Z,101637.00
2022-09-05T16:51:36.385Z,101635.19
2022-09-05T16:54:29.247Z,101638.16
2022-09-05T16:57:00.477Z,101629.31
2022-09-05T16:59:30.040Z,101636.22
2022-09-05T17:02:06.587Z,101633.69
2022-09-05T17:05:15.316Z,101640.72
2022-09-05T17:08:03.881Z,101636.16
2022-09-05T17:10:42.630Z,101637.84
2022-09-05T17:13:16.596Z,101633.66
2022-09-05T17:15:52.135Z,101639.06
2022-09-05T17:18:24.192Z,101638.34
2022-09-05T17:20:56.796Z,101632.56
2022-09-05T17:27:35.483Z,101637.53
2022-09-05T17:29:23.472Z,101634.72
2022-09-05T17:32:34.945Z,101644.28
2022-09-05T17:35:20.298Z,101636.22
2022-09-05T17:38:11.651Z,101639.44
2022-09-05T17:40:59.317Z,101646.91
2022-09-05T17:43:32.998Z,101641.28
2022-09-05T17:46:18.868Z,101640.72
2022-09-05T17:49:06.060Z,101640.28
2022-09-05T17:51:50.800Z,101648.41
2022-09-05T17:54:37.683Z,101658.69
2022-09-05T17:57:29.283Z,101655.84
2022-09-05T18:00:02.299Z,101659.53
2022-09-05T18:02:54.313Z,101656.75
2022-09-05T18:05:57.587Z,101665.28
2022-09-05T18:08:44.943Z,101668.81
2022-09-05T18:11:54.584Z,101674.22
2022-09-05T18:14:38.050Z,101676.56
2022-09-05T18:17:38.205Z,101676.81
2022-09-05T18:20:11.500Z,101685.06
2022-09-05T18:22:47.292Z,101672.13
2022-09-05T18:26:03.351Z,101668.59
2022-09-05T18:28:39.520Z,101669.91
2022-09-05T18:31:40.838Z,101667.34
2022-09-05T18:34:14.813Z,101681.34
2022-09-05T18:36:42.178Z,101674.59
2022-09-05T18:39:24.685Z,101675.44
2022-09-05T18:42:09.154Z,101671.91
2022-09-05T18:44:59.634Z,101666.16
2022-09-05T18:47:54.157Z,101671.16
2022-09-05T18:50:32.182Z,101676.72
2022-09-05T18:53:08.663Z,101668.94
2022-09-05T18:56:14.287Z,101679.34
2022-09-05T18:58:28.312Z,101687.50
2022-09-05T19:00:55.568Z,101680.66
2022-09-05T19:03:27.010Z,101682.06
2022-09-05T19:06:36.602Z,101680.66
2022-09-05T19:08:53.184Z,101684.38
2022-09-05T19:11:30.727Z,101682.84
2022-09-05T19:14:26.369Z,101684.09
2022-09-05T19:17:14.027Z,101679.97
2022-09-05T19:20:31.846Z,101685.03
2022-09-05T19:23:13.286Z,101688.09
2022-09-05T19:25:46.555Z,101678.38
2022-09-05T19:35:54.411Z,101679.09
2022-09-05T19:36:49.129Z,101673.91
2022-09-05T19:37:06.989Z,101678.28
2022-09-05T19:37:30.148Z,101679.69
2022-09-05T19:44:32.414Z,101689.00
2022-09-05T19:47:25.876Z,101688.13
2022-09-05T19:47:55.626Z,101684.34
2022-09-05T19:48:25.848Z,101677.66
2022-09-05T19:51:16.830Z,101678.63
2022-09-05T19:53:54.070Z,101684.97
2022-09-05T19:56:44.568Z,101686.25
2022-09-05T19:59:15.662Z,101669.47
2022-09-05T20:01:43.233Z,101672.81
2022-09-05T20:04:19.466Z,101679.59
2022-09-05T20:06:47.951Z,101681.38
2022-09-05T20:09:19.976Z,101684.78
2022-09-05T20:11:52.633Z,101686.88
2022-09-05T20:14:34.675Z,101687.00
2022-09-05T20:17:20.601Z,101685.78
2022-09-05T20:19:47.837Z,101687.53
2022-09-05T20:22:47.457Z,101689.63
2022-09-05T20:25:36.006Z,101685.25
2022-09-05T20:28:35.892Z,101681.66
2022-09-05T20:31:08.651Z,101679.28
2022-09-05T20:34:04.122Z,101685.47
2022-09-05T20:43:12.375Z,101681.97
2022-09-05T20:43:14.579Z,101682.94
2022-09-05T20:43:28.731Z,101679.78
2022-09-05T20:45:42.014Z,101678.88
2022-09-05T20:54:05.886Z,101681.56
2022-09-05T20:54:15.235Z,101677.09
2022-09-05T20:54:25.732Z,101679.97
2022-09-05T20:56:48.089Z,101681.78
2022-09-05T20:59:34.554Z,101677.50
2022-09-05T21:02:07.215Z,101679.31
2022-09-05T21:04:38.447Z,101674.31
2022-09-05T21:07:19.634Z,101682.59
2022-09-05T21:09:57.656Z,101684.47
2022-09-05T21:12:34.664Z,101683.88
2022-09-05T21:15:31.809Z,101685.78
2022-09-05T21:17:52.486Z,101678.53
2022-09-05T21:20:24.493Z,101683.41
2022-09-05T21:22:54.188Z,101677.03
2022-09-05T21:25:25.990Z,101685.16
2022-09-05T21:28:23.706Z,101686.25
2022-09-05T21:31:04.485Z,101682.78
2022-09-05T21:33:45.066Z,101694.41
2022-09-05T21:36:12.636Z,101682.06
2022-09-05T21:38:41.400Z,101685.72
2022-09-05T21:41:08.275Z,101680.31
2022-09-05T21:47:40.324Z,101681.34
2022-09-05T21:47:48.044Z,101670.00
2022-09-05T21:49:14.183Z,101677.31
2022-09-05T21:51:40.875Z,101664.72
2022-09-05T21:59:22.333Z,101664.44
2022-09-05T21:59:24.825Z,101673.59
2022-09-05T22:00:05.501Z,101672.94
2022-09-05T22:02:37.573Z,101667.72
2022-09-05T22:05:04.779Z,101669.38
2022-09-05T22:07:35.873Z,101664.22
2022-09-05T22:10:04.344Z,101674.09
2022-09-05T22:12:37.436Z,101665.22
2022-09-05T22:15:27.694Z,101669.75
2022-09-05T22:18:09.742Z,101661.06
2022-09-05T22:20:46.443Z,101668.16
2022-09-05T22:23:30.378Z,101657.69
2022-09-05T22:26:00.908Z,101667.31
2022-09-05T22:28:33.723Z,101661.22
2022-09-05T22:31:07.577Z,101664.78
2022-09-05T22:33:38.802Z,101668.16
2022-09-05T22:36:08.072Z,101664.50
2022-09-05T22:38:37.954Z,101673.66
2022-09-05T22:41:06.182Z,101667.41
2022-09-05T22:43:35.302Z,101667.50
2022-09-05T22:46:03.668Z,101660.34
2022-09-05T22:48:34.017Z,101659.25
2022-09-05T22:51:04.267Z,101656.75
2022-09-05T22:53:30.956Z,101664.44
2022-09-05T22:56:00.204Z,101664.56
2022-09-05T22:58:27.372Z,101663.78
2022-09-05T23:00:54.426Z,101664.88
2022-09-05T23:03:21.257Z,101663.78
2022-09-05T23:05:51.155Z,101658.53
2022-09-05T23:08:17.794Z,101669.34
2022-09-05T23:10:44.424Z,101671.88
2022-09-05T23:13:11.422Z,101671.97
2022-09-05T23:15:38.458Z,101667.56
2022-09-05T23:18:08.337Z,101665.63
2022-09-05T23:20:35.735Z,101672.72
2022-09-05T23:23:06.511Z,101669.31
2022-09-05T23:25:34.186Z,101666.59
2022-09-05T23:28:08.493Z,101663.28
2022-09-05T23:30:35.957Z,101667.69
2022-09-05T23:33:08.120Z,101664.94
2022-09-05T23:35:37.802Z,101659.69
2022-09-05T23:38:09.280Z,101664.88
2022-09-05T23:40:36.112Z,101657.84
2022-09-05T23:43:03.399Z,101663.97
2022-09-05T23:45:32.355Z,101655.34
2022-09-05T23:47:59.275Z,101660.56
2022-09-05T23:50:27.295Z,101654.31
2022-09-05T23:52:53.948Z,101661.50
2022-09-05T23:55:23.231Z,101652.44
2022-09-05T23:57:50.013Z,101650.78
